createdAt,value
2017-10-20T00:01:05.328Z,70.80
2017-10-20T00:03:32.803Z,71.30
2017-10-20T00:06:00.279Z,71.70
2017-10-20T00:08:27.776Z,72.20
2017-10-20T00:10:55.237Z,71.90
2017-10-20T00:13:22.805Z,71.20
2017-10-20T00:15:50.267Z,70.70
2017-10-20T00:18:17.812Z,70.40
2017-10-20T00:20:46.032Z,69.80
2017-10-20T00:23:13.539Z,69.80
2017-10-20T00:25:41.038Z,69.70
2017-10-20T00:28:08.527Z,69.60
2017-10-20T00:30:36.024Z,69.10
2017-10-20T00:33:03.485Z,68.70
2017-10-20T00:35:31.000Z,68.60
2017-10-20T00:37:58.467Z,68.70
2017-10-20T00:40:26.738Z,68.80
2017-10-20T00:42:54.239Z,68.80
2017-10-20T00:45:21.707Z,68.80
2017-10-20T00:47:49.197Z,68.80
2017-10-20T00:50:16.673Z,68.80
2017-10-20T00:52:44.927Z,69.00
2017-10-20T00:55:12.398Z,69.00
2017-10-20T00:57:39.886Z,69.40
2017-10-20T01:00:08.177Z,70.50
2017-10-20T01:02:35.655Z,70.50
2017-10-20T01:05:03.160Z,70.40
2017-10-20T01:07:30.640Z,69.60
2017-10-20T01:09:58.909Z,69.80
2017-10-20T01:12:27.144Z,69.70
2017-10-20T01:14:54.627Z,69.80
2017-10-20T01:17:22.107Z,69.80
2017-10-20T01:19:50.379Z,70.30
2017-10-20T01:22:18.671Z,70.30
2017-10-20T01:24:46.899Z,69.90
2017-10-20T01:27:14.409Z,69.90
2017-10-20T01:29:42.631Z,70.10
2017-10-20T01:32:10.128Z,70.10
2017-10-20T01:34:38.387Z,70.50
2017-10-20T01:37:05.875Z,70.40
2017-10-20T01:39:34.127Z,71.10
2017-10-20T01:42:02.360Z,71.70
2017-10-20T01:44:29.850Z,71.70
2017-10-20T01:46:57.356Z,71.40
2017-10-20T01:49:24.860Z,70.90
2017-10-20T01:51:52.355Z,70.70
2017-10-20T01:54:20.599Z,70.70
2017-10-20T01:56:48.097Z,70.70
2017-10-20T01:59:16.323Z,70.40
2017-10-20T02:01:43.815Z,70.50
2017-10-20T02:04:12.072Z,70.90
2017-10-20T02:06:39.587Z,70.90
2017-10-20T02:09:07.055Z,71.30
2017-10-20T02:11:34.599Z,71.50
2017-10-20T02:14:02.068Z,71.50
2017-10-20T02:16:29.593Z,71.40
2017-10-20T02:18:57.817Z,72.30
2017-10-20T02:21:25.275Z,72.30
2017-10-20T02:23:52.790Z,73.00
2017-10-20T02:26:21.047Z,72.10
2017-10-20T02:28:48.543Z,72.10
2017-10-20T02:31:16.041Z,72.00
2017-10-20T02:33:43.503Z,71.70
2017-10-20T02:36:11.020Z,72.10
2017-10-20T02:38:38.499Z,71.70
2017-10-20T02:41:05.995Z,71.80
2017-10-20T02:43:33.505Z,71.90
2017-10-20T02:46:00.998Z,72.10
2017-10-20T02:48:28.455Z,72.30
2017-10-20T02:50:55.952Z,72.40
2017-10-20T02:53:24.210Z,72.80
2017-10-20T02:55:51.675Z,72.80
2017-10-20T02:58:20.020Z,72.70
2017-10-20T03:00:47.488Z,72.70
2017-10-20T03:03:14.992Z,72.20
2017-10-20T03:05:42.477Z,72.30
2017-10-20T03:08:09.947Z,72.20
2017-10-20T03:10:37.432Z,72.10
2017-10-20T03:13:04.938Z,72.40
2017-10-20T03:15:32.427Z,72.00
2017-10-20T03:17:59.887Z,71.90
2017-10-20T03:20:27.403Z,71.70
2017-10-20T03:22:55.631Z,73.50
2017-10-20T03:25:23.119Z,73.50
2017-10-20T03:27:51.351Z,74.30
2017-10-20T03:30:18.844Z,74.30
2017-10-20T03:32:46.363Z,74.20
2017-10-20T03:35:13.835Z,74.60
2017-10-20T03:37:41.331Z,74.80
2017-10-20T03:40:09.586Z,75.00
2017-10-20T03:42:37.067Z,75.00
2017-10-20T03:45:05.344Z,75.30
2017-10-20T03:47:33.563Z,75.20
2017-10-20T03:50:01.059Z,75.20
2017-10-20T03:52:28.539Z,75.00
2017-10-20T03:54:56.856Z,74.60
2017-10-20T03:57:24.332Z,74.70
2017-10-20T03:59:51.810Z,74.70
2017-10-20T04:02:19.328Z,75.10
2017-10-20T04:04:46.816Z,75.10
2017-10-20T04:07:14.324Z,75.20
2017-10-20T04:09:41.816Z,75.70
2017-10-20T04:12:09.319Z,75.80
2017-10-20T04:14:37.559Z,75.60
2017-10-20T04:17:05.080Z,75.60
2017-10-20T04:19:32.569Z,75.90
2017-10-20T04:22:00.074Z,76.10
2017-10-20T04:24:28.329Z,76.10
2017-10-20T04:26:55.815Z,76.10
2017-10-20T04:29:24.087Z,76.10
2017-10-20T04:31:52.356Z,76.10
2017-10-20T04:34:19.848Z,76.10
2017-10-20T04:36:47.320Z,76.30
2017-10-20T04:39:14.820Z,76.40
2017-10-20T04:41:42.304Z,76.20
2017-10-20T04:44:10.560Z,76.50
2017-10-20T04:46:38.048Z,76.50
2017-10-20T04:49:06.317Z,76.80
2017-10-20T04:51:34.550Z,76.90
2017-10-20T04:54:02.055Z,76.90
2017-10-20T04:56:30.308Z,77.20
2017-10-20T04:58:57.809Z,77.20
2017-10-20T05:01:25.303Z,77.10
2017-10-20T05:03:52.829Z,77.10
2017-10-20T05:06:20.320Z,77.20
2017-10-20T05:08:47.803Z,77.30
2017-10-20T05:11:15.292Z,77.20
2017-10-20T05:13:42.797Z,77.40
2017-10-20T05:16:10.287Z,77.40
2017-10-20T05:18:37.791Z,77.40
2017-10-20T05:21:05.276Z,77.40
2017-10-20T05:23:32.787Z,77.40
2017-10-20T05:26:00.278Z,77.60
2017-10-20T05:28:27.777Z,77.70
2017-10-20T05:30:56.024Z,78.00
2017-10-20T05:33:23.531Z,78.00
2017-10-20T05:35:51.898Z,78.10
2017-10-20T05:38:20.201Z,78.10
2017-10-20T05:40:47.715Z,78.10
2017-10-20T05:43:15.196Z,78.10
2017-10-20T05:45:43.423Z,78.10
2017-10-20T05:48:10.931Z,78.10
2017-10-20T05:50:39.178Z,78.00
2017-10-20T05:53:06.695Z,78.10
2017-10-20T05:55:34.162Z,78.10
2017-10-20T05:58:01.667Z,78.10
2017-10-20T06:00:29.187Z,78.20
2017-10-20T06:02:56.717Z,78.30
2017-10-20T06:05:24.943Z,78.10
2017-10-20T06:07:52.431Z,78.10
2017-10-20T06:10:20.717Z,78.30
2017-10-20T06:12:48.949Z,78.30
2017-10-20T06:15:16.452Z,78.30
2017-10-20T06:17:44.742Z,78.50
2017-10-20T06:20:12.259Z,78.50
2017-10-20T06:22:39.735Z,78.60
2017-10-20T06:25:08.004Z,78.60
2017-10-20T06:27:35.488Z,78.60
2017-10-20T06:30:02.984Z,78.80
2017-10-20T06:32:30.470Z,78.90
2017-10-20T06:34:58.009Z,78.90
2017-10-20T06:37:25.480Z,79.00
2017-10-20T06:39:52.982Z,79.00
2017-10-20T06:42:21.246Z,78.70
2017-10-20T06:44:49.493Z,78.90
2017-10-20T06:47:17.009Z,78.90
2017-10-20T06:49:44.489Z,79.10
2017-10-20T06:52:11.999Z,79.10
2017-10-20T06:54:40.269Z,78.90
2017-10-20T06:57:07.739Z,78.90
2017-10-20T06:59:36.000Z,78.90
2017-10-20T07:02:03.482Z,78.90
2017-10-20T07:04:31.014Z,79.00
2017-10-20T07:06:58.503Z,79.20
2017-10-20T07:09:26.780Z,79.30
2017-10-20T07:11:55.039Z,79.30
2017-10-20T07:14:22.517Z,79.30
2017-10-20T07:16:50.012Z,79.30
2017-10-20T07:22:22.231Z,79.40
2017-10-20T07:24:49.758Z,79.30
2017-10-20T07:27:17.268Z,79.30
2017-10-20T07:29:45.548Z,79.40
2017-10-20T07:32:14.449Z,79.50
2017-10-20T07:34:42.704Z,79.60
2017-10-20T07:37:10.208Z,79.60
2017-10-20T07:39:37.678Z,79.60
2017-10-20T07:42:05.196Z,79.70
2017-10-20T07:44:33.459Z,79.80
2017-10-20T07:47:00.983Z,79.80
2017-10-20T07:49:28.465Z,79.90
2017-10-20T07:51:55.942Z,79.80
2017-10-20T07:54:24.240Z,80.00
2017-10-20T07:56:51.749Z,80.00
2017-10-20T07:59:19.243Z,80.10
2017-10-20T08:01:47.470Z,80.00
2017-10-20T08:04:14.967Z,79.90
2017-10-20T08:06:43.260Z,79.90
2017-10-20T08:09:11.496Z,79.90
2017-10-20T08:11:39.036Z,80.00
2017-10-20T08:14:06.532Z,80.00
2017-10-20T08:16:34.806Z,79.90
2017-10-20T08:19:02.301Z,79.70
2017-10-20T08:21:29.820Z,80.20
2017-10-20T08:23:57.311Z,79.00
2017-10-20T08:26:25.596Z,79.00
2017-10-20T08:28:53.068Z,78.90
2017-10-20T08:31:20.567Z,79.10
2017-10-20T08:33:48.067Z,79.20
2017-10-20T08:36:16.341Z,79.20
2017-10-20T08:38:44.616Z,77.90
2017-10-20T08:41:12.843Z,78.00
2017-10-20T08:43:40.367Z,77.90
2017-10-20T08:46:08.607Z,78.60
2017-10-20T08:48:37.576Z,76.10
2017-10-20T08:51:05.091Z,76.10
2017-10-20T08:53:32.583Z,76.50
2017-10-20T08:56:00.106Z,76.00
2017-10-20T08:58:28.329Z,76.00
2017-10-20T09:00:55.844Z,76.10
2017-10-20T09:03:23.334Z,76.40
2017-10-20T09:05:50.860Z,76.50
2017-10-20T09:08:19.128Z,76.20
2017-10-20T09:10:47.356Z,75.60
2017-10-20T09:13:14.859Z,75.60
2017-10-20T09:15:43.582Z,76.00
2017-10-20T09:18:11.100Z,76.00
2017-10-20T09:20:38.570Z,76.40
2017-10-20T09:23:06.849Z,75.80
2017-10-20T09:25:35.112Z,76.10
2017-10-20T09:28:02.609Z,76.00
2017-10-20T09:30:30.102Z,76.10
2017-10-20T09:32:57.611Z,75.60
2017-10-20T09:35:25.144Z,75.10
2017-10-20T09:37:52.673Z,75.60
2017-10-20T09:40:20.623Z,75.40
2017-10-20T09:42:48.122Z,75.60
2017-10-20T09:45:15.662Z,75.30
2017-10-20T09:47:43.443Z,75.20
2017-10-20T09:50:10.937Z,75.20
2017-10-20T09:52:39.187Z,76.50
2017-10-20T09:55:06.963Z,76.40
2017-10-20T09:57:35.330Z,74.80
2017-10-20T10:00:02.871Z,74.70
2017-10-20T10:02:30.364Z,72.20
2017-10-20T10:04:58.630Z,72.50
2017-10-20T10:07:27.611Z,70.70
2017-10-20T10:09:55.096Z,70.70
2017-10-20T10:12:23.353Z,70.80
2017-10-20T10:14:51.591Z,70.80
2017-10-20T10:17:19.087Z,70.80
2017-10-20T10:19:48.086Z,70.20
2017-10-20T10:22:15.583Z,70.20
2017-10-20T10:24:43.067Z,70.10
2017-10-20T10:27:10.598Z,70.10
2017-10-20T10:29:38.849Z,70.40
2017-10-20T10:32:06.351Z,70.40
2017-10-20T10:34:33.841Z,70.60
2017-10-20T10:37:01.311Z,70.20
2017-10-20T10:39:30.321Z,71.20
2017-10-20T10:41:58.554Z,70.30
2017-10-20T10:44:26.106Z,70.30
2017-10-20T10:46:53.566Z,70.40
2017-10-20T10:49:21.052Z,71.20
2017-10-20T10:51:48.551Z,71.90
2017-10-20T10:54:16.574Z,71.70
2017-10-20T10:56:44.100Z,71.70
2017-10-20T10:59:11.612Z,70.10
2017-10-20T11:01:40.962Z,70.90
2017-10-20T11:04:08.511Z,70.90
2017-10-20T11:06:47.936Z,68.40
2017-10-20T11:09:19.020Z,65.40
2017-10-20T11:11:58.523Z,65.40
2017-10-20T11:14:26.779Z,64.60
2017-10-20T11:16:54.254Z,64.60
2017-10-20T11:19:22.505Z,28.50
2017-10-20T11:21:49.984Z,28.50
2017-10-20T11:24:18.264Z,25.00
2017-10-20T11:26:46.476Z,24.20
2017-10-20T11:29:13.971Z,24.20
2017-10-20T11:31:41.487Z,24.00
2017-10-20T11:34:08.980Z,23.80
2017-10-20T11:36:36.456Z,23.80
2017-10-20T11:39:03.937Z,24.10
2017-10-20T11:41:32.206Z,23.70
2017-10-20T11:44:00.467Z,24.00
2017-10-20T11:46:27.948Z,23.90
2017-10-20T11:48:56.180Z,23.40
2017-10-20T11:51:23.660Z,23.50
2017-10-20T11:53:51.131Z,23.60
2017-10-20T11:56:19.396Z,23.90
2017-10-20T11:58:46.862Z,23.90
2017-10-20T12:01:15.107Z,24.20
2017-10-20T12:03:42.612Z,24.20
2017-10-20T12:06:10.851Z,24.60
2017-10-20T12:08:38.365Z,24.60
2017-10-20T12:11:05.843Z,24.20
2017-10-20T12:13:33.340Z,24.00
2017-10-20T12:16:00.818Z,24.10
2017-10-20T12:18:29.088Z,24.00
2017-10-20T12:20:57.341Z,24.50
2017-10-20T12:23:24.811Z,24.40
2017-10-20T12:25:52.328Z,24.60
2017-10-20T12:28:19.799Z,25.10
2017-10-20T12:30:47.290Z,25.00
2017-10-20T12:33:15.611Z,25.40
2017-10-20T12:35:43.118Z,25.20
2017-10-20T12:38:10.631Z,24.90
2017-10-20T12:40:39.679Z,24.70
2017-10-20T12:43:07.219Z,24.60
2017-10-20T12:45:34.690Z,24.90
2017-10-20T12:48:02.184Z,25.50
2017-10-20T12:50:29.687Z,24.80
2017-10-20T12:52:57.184Z,25.10
2017-10-20T12:55:25.424Z,25.60
2017-10-20T12:57:52.923Z,25.60
2017-10-20T13:00:21.192Z,25.90
2017-10-20T13:02:48.656Z,25.90
2017-10-20T13:05:16.916Z,25.80
2017-10-20T13:07:44.419Z,25.80
2017-10-20T13:10:11.876Z,26.20
2017-10-20T13:12:39.375Z,26.50
2017-10-20T13:15:06.856Z,26.90
2017-10-20T13:17:34.351Z,26.70
2017-10-20T13:20:01.807Z,26.70
2017-10-20T13:22:29.301Z,27.20
2017-10-20T13:24:56.789Z,27.10
2017-10-20T13:27:24.284Z,27.90
2017-10-20T13:29:51.743Z,27.90
2017-10-20T13:32:19.230Z,27.50
2017-10-20T14:04:37.407Z,30.20
2017-10-20T14:07:04.881Z,30.20
2017-10-20T14:09:33.181Z,30.80
2017-10-20T14:12:00.639Z,30.80
2017-10-20T14:14:28.112Z,31.10
2017-10-20T14:16:55.640Z,31.30
2017-10-20T14:19:23.880Z,31.80
2017-10-20T14:21:51.387Z,31.80
2017-10-20T14:24:19.639Z,32.50
2017-10-20T14:26:47.138Z,32.50
2017-10-20T14:29:14.644Z,33.40
2017-10-20T14:31:42.172Z,33.70
2017-10-20T14:34:09.667Z,33.50
2017-10-20T14:36:37.171Z,33.50
2017-10-20T14:39:04.705Z,33.10
2017-10-20T14:41:32.970Z,34.30
2017-10-20T14:44:01.228Z,34.60
2017-10-20T14:46:28.724Z,34.60
2017-10-20T14:48:56.949Z,35.20
2017-10-20T14:51:24.467Z,35.20
2017-10-20T14:53:51.948Z,39.30
2017-10-20T14:56:19.455Z,40.60
2017-10-20T14:58:46.950Z,42.60
2017-10-20T15:01:14.453Z,42.40
2017-10-20T15:03:41.970Z,43.20
2017-10-20T15:06:09.454Z,43.20
2017-10-20T15:08:36.998Z,43.00
2017-10-20T15:11:04.469Z,43.50
2017-10-20T15:13:32.056Z,46.40
2017-10-20T15:15:59.548Z,49.60
2017-10-20T15:18:27.816Z,49.70
2017-10-20T15:20:56.089Z,56.20
2017-10-20T15:23:23.572Z,56.00
2017-10-20T15:25:51.857Z,51.50
2017-10-20T15:28:19.311Z,51.30
2017-10-20T15:30:46.820Z,50.60
2017-10-20T15:33:14.307Z,51.20
2017-10-20T15:35:43.211Z,51.50
2017-10-20T15:38:11.457Z,51.80
2017-10-20T15:40:38.974Z,51.80
2017-10-20T15:43:06.459Z,53.00
2017-10-20T15:45:33.917Z,54.30
2017-10-20T15:48:01.444Z,55.10
2017-10-20T15:50:29.397Z,57.00
2017-10-20T15:52:56.957Z,61.40
2017-10-20T15:55:25.223Z,62.50
2017-10-20T15:57:53.489Z,62.70
2017-10-20T16:00:20.995Z,62.70
2017-10-20T16:02:48.477Z,64.10
2017-10-20T16:05:15.972Z,67.10
2017-10-20T16:07:44.210Z,68.10
2017-10-20T16:10:11.695Z,68.10
2017-10-20T16:12:40.691Z,68.10
2017-10-20T16:15:08.240Z,68.10
2017-10-20T16:17:36.484Z,68.40
2017-10-20T16:20:03.963Z,68.40
2017-10-20T16:22:31.468Z,68.60
2017-10-20T16:24:58.942Z,68.70
2017-10-20T16:27:26.471Z,68.40
2017-10-20T16:29:54.697Z,68.40
2017-10-20T16:32:22.201Z,68.40
2017-10-20T16:34:50.442Z,68.60
2017-10-20T16:37:17.910Z,68.60
2017-10-20T16:39:46.919Z,68.70
2017-10-20T16:42:15.075Z,68.70
2017-10-20T16:44:42.605Z,68.70
2017-10-20T16:47:10.088Z,68.80
2017-10-20T16:49:37.580Z,69.00
2017-10-20T16:52:05.861Z,69.40
2017-10-20T16:54:33.381Z,69.30
2017-10-20T16:57:00.843Z,69.40
2017-10-20T16:59:28.337Z,69.50
2017-10-20T17:01:56.601Z,69.90
2017-10-20T17:04:24.068Z,69.90
2017-10-20T17:06:52.364Z,70.10
2017-10-20T17:09:19.879Z,70.10
2017-10-20T17:11:47.348Z,70.00
2017-10-20T17:14:16.524Z,70.10
2017-10-20T17:16:44.020Z,70.10
2017-10-20T17:19:12.319Z,70.40
2017-10-20T17:21:40.610Z,69.90
2017-10-20T17:24:08.154Z,69.90
2017-10-20T17:26:36.403Z,70.20
2017-10-20T17:29:04.660Z,70.60
2017-10-20T17:31:32.175Z,70.60
2017-10-20T17:33:59.659Z,70.50
2017-10-20T17:36:27.168Z,70.30
2017-10-20T17:38:55.421Z,70.70
2017-10-20T17:41:22.918Z,70.60
2017-10-20T17:43:51.175Z,70.70
2017-10-20T17:46:19.404Z,70.90
2017-10-20T17:48:46.911Z,70.90
2017-10-20T17:51:15.139Z,70.80
2017-10-20T17:53:42.664Z,70.70
2017-10-20T17:56:10.428Z,70.70
2017-10-20T17:58:37.908Z,71.30
2017-10-20T18:01:05.387Z,71.30
2017-10-20T18:03:32.882Z,71.20
2017-10-20T18:06:01.163Z,71.40
2017-10-20T18:08:29.392Z,71.30
2017-10-20T18:10:56.918Z,71.30
2017-10-20T18:13:25.160Z,71.50
2017-10-20T18:15:54.178Z,71.40
2017-10-20T18:18:22.419Z,71.20
2017-10-20T18:20:49.893Z,71.20
2017-10-20T18:23:18.904Z,71.10
2017-10-20T18:25:47.150Z,71.60
2017-10-20T18:28:14.652Z,71.60
2017-10-20T18:30:42.128Z,71.70
2017-10-20T18:33:09.608Z,71.70
2017-10-20T18:35:37.111Z,71.60
2017-10-20T18:38:05.358Z,71.90
2017-10-20T18:40:34.393Z,71.70
2017-10-20T18:43:02.627Z,71.70
2017-10-20T18:45:30.139Z,71.70
2017-10-20T18:47:57.626Z,71.70
2017-10-20T18:50:25.110Z,71.90
2017-10-20T18:52:52.615Z,72.00
2017-10-20T18:55:20.122Z,71.90
2017-10-20T18:57:47.646Z,71.80
2017-10-20T19:00:15.107Z,71.70
2017-10-20T19:02:42.649Z,71.70
2017-10-20T19:05:10.879Z,72.50
2017-10-20T19:07:38.371Z,72.50
2017-10-20T19:10:06.628Z,72.60
2017-10-20T19:12:34.103Z,72.60
2017-10-20T19:15:02.363Z,72.30
2017-10-20T19:17:31.372Z,72.30
2017-10-20T19:19:59.609Z,72.20
2017-10-20T19:22:27.147Z,72.20
2017-10-20T19:24:54.664Z,72.50
2017-10-20T19:27:22.927Z,72.30
2017-10-20T19:29:50.391Z,72.30
2017-10-20T19:32:18.638Z,71.90
2017-10-20T19:34:46.148Z,71.90
2017-10-20T19:37:14.415Z,72.10
2017-10-20T19:39:42.672Z,72.90
2017-10-20T19:42:10.135Z,72.90
2017-10-20T19:44:38.539Z,72.20
2017-10-20T19:47:06.007Z,72.10
2017-10-20T19:49:33.500Z,72.00
2017-10-20T19:52:01.003Z,71.90
2017-10-20T19:54:29.267Z,72.20
2017-10-20T19:56:57.539Z,72.20
2017-10-20T19:59:25.044Z,72.20
2017-10-20T20:01:52.552Z,72.00
2017-10-20T20:04:20.023Z,71.90
2017-10-20T20:06:48.252Z,72.60
2017-10-20T20:09:15.752Z,72.60
2017-10-20T20:11:43.262Z,72.60
2017-10-20T20:14:10.792Z,72.20
2017-10-20T20:16:39.015Z,72.60
2017-10-20T20:19:06.564Z,72.50
2017-10-20T20:21:34.056Z,72.30
2017-10-20T20:24:01.534Z,72.30
2017-10-20T20:26:29.795Z,72.50
2017-10-20T20:28:57.270Z,72.50
2017-10-20T20:31:40.407Z,72.40
2017-10-20T20:34:21.460Z,72.10
2017-10-20T20:36:48.971Z,72.10
2017-10-20T20:39:16.475Z,72.60
2017-10-20T20:41:43.963Z,72.80
2017-10-20T20:44:12.241Z,73.70
2017-10-20T20:46:39.749Z,73.70
2017-10-20T20:49:07.247Z,73.30
2017-10-20T20:51:35.475Z,73.50
2017-10-20T20:54:02.996Z,73.50
2017-10-20T20:56:30.482Z,73.70
2017-10-20T20:58:58.010Z,73.10
2017-10-20T21:01:26.244Z,72.40
2017-10-20T21:03:53.736Z,72.40
2017-10-20T21:06:22.020Z,72.00
2017-10-20T21:08:50.245Z,72.00
2017-10-20T21:11:17.729Z,72.00
2017-10-20T21:13:45.221Z,71.80
2017-10-20T21:16:13.448Z,71.00
2017-10-20T21:18:40.972Z,71.00
2017-10-20T21:21:08.442Z,71.30
2017-10-20T21:23:35.940Z,71.50
2017-10-20T21:26:03.420Z,71.40
2017-10-20T21:28:31.692Z,71.30
2017-10-20T21:30:59.967Z,71.10
2017-10-20T21:33:28.204Z,71.10
2017-10-20T21:35:55.707Z,71.00
2017-10-20T21:38:23.959Z,71.60
2017-10-20T21:40:51.459Z,71.60
2017-10-20T21:43:18.941Z,72.50
2017-10-20T21:45:46.493Z,71.90
2017-10-20T21:48:14.362Z,71.70
2017-10-20T21:50:41.869Z,71.80
2017-10-20T21:53:09.362Z,71.50
2017-10-20T21:55:36.841Z,71.50
2017-10-20T21:58:04.352Z,72.10
2017-10-20T22:00:32.592Z,73.40
2017-10-20T22:03:00.108Z,73.40
2017-10-20T22:05:28.363Z,72.10
2017-10-20T22:07:55.829Z,72.10
2017-10-20T22:10:24.114Z,71.70
2017-10-20T22:12:52.362Z,71.60
2017-10-20T22:15:22.364Z,71.60
2017-10-20T22:17:51.383Z,71.20
2017-10-20T22:20:18.927Z,71.10
2017-10-20T22:22:46.387Z,71.20
2017-10-20T22:25:13.851Z,72.20
2017-10-20T22:27:41.355Z,73.00
2017-10-20T22:30:08.826Z,72.60
2017-10-20T22:32:36.352Z,71.70
2017-10-20T22:35:04.589Z,71.10
2017-10-20T22:37:32.062Z,71.10
2017-10-20T22:39:59.589Z,73.40
2017-10-20T22:42:27.060Z,74.20
2017-10-20T22:44:54.542Z,73.20
2017-10-20T22:47:23.533Z,73.10
2017-10-20T22:49:51.048Z,73.10
2017-10-20T22:52:18.509Z,72.60
2017-10-20T22:54:45.992Z,72.20
2017-10-20T22:57:13.463Z,72.40
2017-10-20T22:59:40.914Z,72.00
2017-10-20T23:02:08.410Z,72.00
2017-10-20T23:04:35.884Z,72.00
2017-10-20T23:07:03.414Z,72.20
2017-10-20T23:09:30.875Z,71.90
2017-10-20T23:11:59.139Z,72.30
2017-10-20T23:14:26.620Z,72.30
2017-10-20T23:16:54.864Z,71.90
2017-10-20T23:19:22.350Z,71.90
2017-10-20T23:21:50.587Z,72.50
2017-10-20T23:24:18.099Z,72.40
2017-10-20T23:26:46.330Z,73.50
2017-10-20T23:29:13.799Z,73.40
2017-10-20T23:31:41.305Z,72.90
2017-10-20T23:34:08.772Z,72.50
2017-10-20T23:36:36.306Z,72.50
2017-10-20T23:39:04.560Z,72.30
2017-10-20T23:41:32.079Z,72.30
2017-10-20T23:43:59.547Z,74.40
2017-10-20T23:46:27.032Z,75.00
2017-10-20T23:48:54.557Z,74.30
2017-10-20T23:51:22.034Z,74.90
2017-10-20T23:53:49.540Z,75.60
2017-10-20T23:56:17.016Z,75.30
2017-10-20T23:58:44.518Z,74.40
